Pagrindinis puslapis
METAR-TAF:

METAR-TAF

Oro uostai :

Abu Simbelas, Egiptas

platuma: 22-22-33N, ilguma: 31-36-42E, Aukštis: 188 m

Dabartinis oras

Ataskaita buvo paskelbta 1 valandą ir 37 minutes, ne 06:00 UTC
Vėjas 4 kt iš Rytų/Šiaurės Rytų
Temperatūra 33°C
Drėgmė 39%
Slėgis 1009 hPa
Matomumas 10 km arba daugiau
nėra debesų žemiau 1500 m ir nėra kamuolinių lietaus debesų

METAR: HEBL 240600Z 07004KT CAVOK 33/17 Q1009 NOSIG

Laikas: 09:37 (07:37 UTC)

Prognozė

Ataskaita buvo paskelbta 2 valandos ir 37 minutes, ne 05:00 UTC
Prognozė galioja nuo 24 metu 06 UTC su 25 metu 12 UTC
Vėjas 12 kt iš Šiaurės
Matomumas 10 km arba daugiau
nėra debesų žemiau 1500 m ir nėra kamuolinių lietaus debesų
Laikinai
nuo 24 metu 10 UTC su 24 metu 18 UTC
Matomumas: 4000 m
Smėlis,

TAF: HEBL 240500Z 2406/2512 36012KT CAVOK TEMPO 2410/2418 4000 SA NSC

Orai ataskaitas ir orų prognozės (METAR, TAF).

turimą stotys yra geltonos ir raudonos taškus žemėlapyje.

Perkelti pele per norėdami pamatyti stoties vardą.

Tada spustelėkite, norėdami matyti oro stebėjimo ir prognozės.

Norėdami pakeisti žemėlapį: spustelėkite ant žalios mygtukų su juodo kryžiaus žemyn,; žalią mygtuką su brūkšneliu, jei norite nutolinti; arba žalių rodyklių gretimoms žemėlapius.


METAR-TAF: